sensor_id;sensor_type;location;lat;lon;timestamp;temperature;humidity
516;DHT22;244;48.508;9.052;2023-03-14T00:01:55;11.40;30.40
516;DHT22;244;48.508;9.052;2023-03-14T00:04:23;11.40;30.50
516;DHT22;244;48.508;9.052;2023-03-14T00:06:50;11.40;30.50
516;DHT22;244;48.508;9.052;2023-03-14T00:09:17;11.40;30.30
516;DHT22;244;48.508;9.052;2023-03-14T00:11:44;11.40;30.30
516;DHT22;244;48.508;9.052;2023-03-14T00:14:12;11.40;30.20
516;DHT22;244;48.508;9.052;2023-03-14T00:16:40;11.40;30.10
516;DHT22;244;48.508;9.052;2023-03-14T00:19:07;11.30;30.00
516;DHT22;244;48.508;9.052;2023-03-14T00:21:36;11.30;30.00
516;DHT22;244;48.508;9.052;2023-03-14T00:24:03;11.30;30.20
516;DHT22;244;48.508;9.052;2023-03-14T00:26:30;11.20;30.30
516;DHT22;244;48.508;9.052;2023-03-14T00:28:57;11.30;30.60
516;DHT22;244;48.508;9.052;2023-03-14T00:31:24;11.20;30.60
516;DHT22;244;48.508;9.052;2023-03-14T00:33:52;11.20;30.40
516;DHT22;244;48.508;9.052;2023-03-14T00:36:19;11.20;30.30
516;DHT22;244;48.508;9.052;2023-03-14T00:38:50;11.20;30.50
516;DHT22;244;48.508;9.052;2023-03-14T00:41:19;11.10;31.40
516;DHT22;244;48.508;9.052;2023-03-14T00:43:47;11.10;30.80
516;DHT22;244;48.508;9.052;2023-03-14T00:46:14;11.10;31.10
516;DHT22;244;48.508;9.052;2023-03-14T00:48:41;11.10;31.20
516;DHT22;244;48.508;9.052;2023-03-14T00:51:09;11.20;31.30
516;DHT22;244;48.508;9.052;2023-03-14T00:53:38;11.10;31.20
516;DHT22;244;48.508;9.052;2023-03-14T00:56:10;11.20;31.10
516;DHT22;244;48.508;9.052;2023-03-14T00:58:37;11.10;31.00
516;DHT22;244;48.508;9.052;2023-03-14T01:01:06;11.10;31.00
516;DHT22;244;48.508;9.052;2023-03-14T01:03:33;11.10;30.90
516;DHT22;244;48.508;9.052;2023-03-14T01:06:07;11.00;31.00
516;DHT22;244;48.508;9.052;2023-03-14T01:08:34;11.00;31.10
516;DHT22;244;48.508;9.052;2023-03-14T01:11:07;11.00;31.10
516;DHT22;244;48.508;9.052;2023-03-14T01:13:34;11.00;31.20
516;DHT22;244;48.508;9.052;2023-03-14T01:16:02;11.00;31.30
516;DHT22;244;48.508;9.052;2023-03-14T01:18:30;11.10;31.50
516;DHT22;244;48.508;9.052;2023-03-14T01:20:58;11.10;31.60
516;DHT22;244;48.508;9.052;2023-03-14T01:23:25;11.10;31.40
516;DHT22;244;48.508;9.052;2023-03-14T01:25:51;11.10;31.50
516;DHT22;244;48.508;9.052;2023-03-14T01:28:20;11.10;31.50
516;DHT22;244;48.508;9.052;2023-03-14T01:30:48;11.10;31.40
516;DHT22;244;48.508;9.052;2023-03-14T01:33:15;11.20;31.40
516;DHT22;244;48.508;9.052;2023-03-14T01:35:41;11.20;31.30
516;DHT22;244;48.508;9.052;2023-03-14T01:38:08;11.20;31.20
516;DHT22;244;48.508;9.052;2023-03-14T01:40:41;11.20;31.00
516;DHT22;244;48.508;9.052;2023-03-14T01:43:14;11.20;30.90
516;DHT22;244;48.508;9.052;2023-03-14T01:51:44;11.20;30.40
516;DHT22;244;48.508;9.052;2023-03-14T01:54:16;11.10;30.30
516;DHT22;244;48.508;9.052;2023-03-14T01:56:48;11.10;30.40
516;DHT22;244;48.508;9.052;2023-03-14T01:59:17;11.10;30.30
516;DHT22;244;48.508;9.052;2023-03-14T02:01:46;11.10;30.40
516;DHT22;244;48.508;9.052;2023-03-14T02:04:17;10.90;31.00
516;DHT22;244;48.508;9.052;2023-03-14T02:06:51;10.90;30.50
516;DHT22;244;48.508;9.052;2023-03-14T02:09:20;10.80;30.60
516;DHT22;244;48.508;9.052;2023-03-14T02:11:47;10.80;31.00
516;DHT22;244;48.508;9.052;2023-03-14T02:14:24;10.80;31.10
516;DHT22;244;48.508;9.052;2023-03-14T02:16:52;10.80;31.40
516;DHT22;244;48.508;9.052;2023-03-14T02:19:26;10.80;31.50
516;DHT22;244;48.508;9.052;2023-03-14T02:22:01;10.80;31.40
516;DHT22;244;48.508;9.052;2023-03-14T02:24:35;10.70;31.60
516;DHT22;244;48.508;9.052;2023-03-14T02:27:10;10.70;31.70
516;DHT22;244;48.508;9.052;2023-03-14T02:29:43;10.70;32.50
516;DHT22;244;48.508;9.052;2023-03-14T02:32:13;10.70;31.80
516;DHT22;244;48.508;9.052;2023-03-14T02:34:42;10.70;31.90
516;DHT22;244;48.508;9.052;2023-03-14T02:37:11;10.70;32.10
516;DHT22;244;48.508;9.052;2023-03-14T02:39:42;10.70;32.00
516;DHT22;244;48.508;9.052;2023-03-14T02:42:13;10.80;31.90
516;DHT22;244;48.508;9.052;2023-03-14T02:44:51;10.80;32.00
516;DHT22;244;48.508;9.052;2023-03-14T02:47:21;10.70;31.90
516;DHT22;244;48.508;9.052;2023-03-14T02:49:49;10.70;31.70
516;DHT22;244;48.508;9.052;2023-03-14T02:52:17;10.70;31.70
516;DHT22;244;48.508;9.052;2023-03-14T02:54:44;10.60;31.60
516;DHT22;244;48.508;9.052;2023-03-14T02:57:12;10.60;31.70
516;DHT22;244;48.508;9.052;2023-03-14T02:59:39;10.60;31.70
516;DHT22;244;48.508;9.052;2023-03-14T03:02:06;10.60;31.70
516;DHT22;244;48.508;9.052;2023-03-14T03:04:33;10.60;31.70
516;DHT22;244;48.508;9.052;2023-03-14T03:07:00;10.60;31.70
516;DHT22;244;48.508;9.052;2023-03-14T03:09:27;10.60;31.80
516;DHT22;244;48.508;9.052;2023-03-14T03:11:53;10.60;32.40
516;DHT22;244;48.508;9.052;2023-03-14T03:14:22;10.60;31.60
516;DHT22;244;48.508;9.052;2023-03-14T03:16:49;10.50;31.50
516;DHT22;244;48.508;9.052;2023-03-14T03:19:16;10.50;31.50
516;DHT22;244;48.508;9.052;2023-03-14T03:21:43;10.60;32.30
516;DHT22;244;48.508;9.052;2023-03-14T03:24:10;10.50;31.40
516;DHT22;244;48.508;9.052;2023-03-14T03:26:37;10.50;31.30
516;DHT22;244;48.508;9.052;2023-03-14T03:29:04;10.50;31.40
516;DHT22;244;48.508;9.052;2023-03-14T03:31:32;10.50;31.30
516;DHT22;244;48.508;9.052;2023-03-14T03:33:59;10.50;31.20
516;DHT22;244;48.508;9.052;2023-03-14T03:36:27;10.50;31.00
516;DHT22;244;48.508;9.052;2023-03-14T03:38:54;10.40;30.70
516;DHT22;244;48.508;9.052;2023-03-14T03:41:20;10.40;30.50
516;DHT22;244;48.508;9.052;2023-03-14T03:43:47;10.40;30.40
516;DHT22;244;48.508;9.052;2023-03-14T03:46:14;10.40;30.30
516;DHT22;244;48.508;9.052;2023-03-14T03:48:42;10.30;31.10
516;DHT22;244;48.508;9.052;2023-03-14T03:51:12;10.30;30.40
516;DHT22;244;48.508;9.052;2023-03-14T03:53:40;10.30;30.40
516;DHT22;244;48.508;9.052;2023-03-14T03:56:10;10.20;30.50
516;DHT22;244;48.508;9.052;2023-03-14T03:58:37;10.20;30.50
516;DHT22;244;48.508;9.052;2023-03-14T04:01:05;10.20;30.60
516;DHT22;244;48.508;9.052;2023-03-14T04:03:32;10.20;30.50
516;DHT22;244;48.508;9.052;2023-03-14T04:06:02;10.10;30.50
516;DHT22;244;48.508;9.052;2023-03-14T04:08:29;10.10;31.30
516;DHT22;244;48.508;9.052;2023-03-14T04:10:56;10.10;30.50
516;DHT22;244;48.508;9.052;2023-03-14T04:13:24;10.10;30.40
516;DHT22;244;48.508;9.052;2023-03-14T04:15:51;10.10;30.30
516;DHT22;244;48.508;9.052;2023-03-14T04:18:18;10.10;30.40
516;DHT22;244;48.508;9.052;2023-03-14T04:20:45;10.10;30.40
516;DHT22;244;48.508;9.052;2023-03-14T04:23:13;10.00;30.40
516;DHT22;244;48.508;9.052;2023-03-14T04:25:40;10.00;30.50
516;DHT22;244;48.508;9.052;2023-03-14T04:28:07;9.90;31.50
516;DHT22;244;48.508;9.052;2023-03-14T04:30:34;9.90;31.60
516;DHT22;244;48.508;9.052;2023-03-14T04:33:00;9.90;31.80
516;DHT22;244;48.508;9.052;2023-03-14T04:35:29;9.90;32.00
516;DHT22;244;48.508;9.052;2023-03-14T04:37:56;9.90;32.20
516;DHT22;244;48.508;9.052;2023-03-14T04:40:25;9.90;32.20
516;DHT22;244;48.508;9.052;2023-03-14T04:42:52;9.90;32.30
516;DHT22;244;48.508;9.052;2023-03-14T04:45:19;9.80;32.40
516;DHT22;244;48.508;9.052;2023-03-14T04:47:46;9.80;32.40
516;DHT22;244;48.508;9.052;2023-03-14T04:50:13;9.80;32.60
516;DHT22;244;48.508;9.052;2023-03-14T04:52:40;9.80;32.60
516;DHT22;244;48.508;9.052;2023-03-14T04:55:07;9.80;32.60
516;DHT22;244;48.508;9.052;2023-03-14T04:57:35;9.80;32.70
516;DHT22;244;48.508;9.052;2023-03-14T05:00:03;9.80;32.90
516;DHT22;244;48.508;9.052;2023-03-14T05:02:32;9.80;32.70
516;DHT22;244;48.508;9.052;2023-03-14T05:04:59;9.90;32.70
516;DHT22;244;48.508;9.052;2023-03-14T05:07:26;9.90;33.00
516;DHT22;244;48.508;9.052;2023-03-14T05:09:53;9.90;33.20
516;DHT22;244;48.508;9.052;2023-03-14T05:12:20;9.90;32.90
516;DHT22;244;48.508;9.052;2023-03-14T05:14:49;9.90;32.70
516;DHT22;244;48.508;9.052;2023-03-14T05:17:15;9.90;32.50
516;DHT22;244;48.508;9.052;2023-03-14T05:19:44;9.90;32.50
516;DHT22;244;48.508;9.052;2023-03-14T05:22:11;9.90;32.60
516;DHT22;244;48.508;9.052;2023-03-14T05:24:38;9.90;32.90
516;DHT22;244;48.508;9.052;2023-03-14T05:27:05;9.90;33.00
516;DHT22;244;48.508;9.052;2023-03-14T05:29:32;9.90;34.00
516;DHT22;244;48.508;9.052;2023-03-14T05:32:00;9.90;33.20
516;DHT22;244;48.508;9.052;2023-03-14T05:34:27;10.00;32.40
516;DHT22;244;48.508;9.052;2023-03-14T05:36:54;10.00;32.40
516;DHT22;244;48.508;9.052;2023-03-14T05:39:22;10.10;32.50
516;DHT22;244;48.508;9.052;2023-03-14T05:41:48;10.10;32.50
516;DHT22;244;48.508;9.052;2023-03-14T05:44:19;10.10;32.20
516;DHT22;244;48.508;9.052;2023-03-14T05:46:47;10.10;32.00
516;DHT22;244;48.508;9.052;2023-03-14T05:49:16;10.20;32.10
516;DHT22;244;48.508;9.052;2023-03-14T05:51:52;10.20;32.20
516;DHT22;244;48.508;9.052;2023-03-14T05:54:19;10.20;32.10
516;DHT22;244;48.508;9.052;2023-03-14T05:56:46;10.20;31.90
516;DHT22;244;48.508;9.052;2023-03-14T05:59:13;10.30;31.90
516;DHT22;244;48.508;9.052;2023-03-14T06:01:41;10.30;31.70
516;DHT22;244;48.508;9.052;2023-03-14T06:04:17;10.30;31.50
516;DHT22;244;48.508;9.052;2023-03-14T06:06:44;10.30;31.30
516;DHT22;244;48.508;9.052;2023-03-14T06:09:14;10.30;31.10
516;DHT22;244;48.508;9.052;2023-03-14T06:11:42;10.30;30.90
516;DHT22;244;48.508;9.052;2023-03-14T06:14:13;10.30;30.90
516;DHT22;244;48.508;9.052;2023-03-14T06:16:40;10.30;30.80
516;DHT22;244;48.508;9.052;2023-03-14T06:19:07;10.30;31.00
516;DHT22;244;48.508;9.052;2023-03-14T06:21:35;10.40;31.00
516;DHT22;244;48.508;9.052;2023-03-14T06:24:02;10.40;31.60
516;DHT22;244;48.508;9.052;2023-03-14T06:26:30;10.40;30.90
516;DHT22;244;48.508;9.052;2023-03-14T06:28:56;10.50;31.00
516;DHT22;244;48.508;9.052;2023-03-14T06:31:26;10.50;31.10
516;DHT22;244;48.508;9.052;2023-03-14T06:33:53;10.60;31.10
516;DHT22;244;48.508;9.052;2023-03-14T06:36:20;10.70;31.20
516;DHT22;244;48.508;9.052;2023-03-14T06:38:48;10.80;31.10
516;DHT22;244;48.508;9.052;2023-03-14T06:41:15;10.80;31.00
516;DHT22;244;48.508;9.052;2023-03-14T06:43:42;10.80;30.80
516;DHT22;244;48.508;9.052;2023-03-14T06:46:09;10.90;30.80
516;DHT22;244;48.508;9.052;2023-03-14T06:48:36;10.90;30.70
516;DHT22;244;48.508;9.052;2023-03-14T06:51:03;10.90;30.50
516;DHT22;244;48.508;9.052;2023-03-14T06:53:30;10.90;30.40
516;DHT22;244;48.508;9.052;2023-03-14T06:55:58;10.90;30.50
516;DHT22;244;48.508;9.052;2023-03-14T06:58:25;10.90;30.70
516;DHT22;244;48.508;9.052;2023-03-14T07:00:52;11.10;31.20
516;DHT22;244;48.508;9.052;2023-03-14T07:03:20;11.20;31.60
516;DHT22;244;48.508;9.052;2023-03-14T07:05:46;11.30;31.80
516;DHT22;244;48.508;9.052;2023-03-14T07:08:13;11.50;32.10
516;DHT22;244;48.508;9.052;2023-03-14T07:10:40;11.60;32.10
516;DHT22;244;48.508;9.052;2023-03-14T07:13:08;11.80;32.10
516;DHT22;244;48.508;9.052;2023-03-14T07:15:35;11.90;31.70
516;DHT22;244;48.508;9.052;2023-03-14T07:18:02;12.00;31.50
516;DHT22;244;48.508;9.052;2023-03-14T07:20:29;12.10;31.20
516;DHT22;244;48.508;9.052;2023-03-14T07:22:57;12.20;31.00
516;DHT22;244;48.508;9.052;2023-03-14T07:25:25;12.30;30.80
516;DHT22;244;48.508;9.052;2023-03-14T07:27:52;12.40;30.60
516;DHT22;244;48.508;9.052;2023-03-14T07:30:21;12.50;30.70
516;DHT22;244;48.508;9.052;2023-03-14T07:32:48;12.60;31.30
516;DHT22;244;48.508;9.052;2023-03-14T07:35:15;12.80;30.60
516;DHT22;244;48.508;9.052;2023-03-14T07:37:41;13.00;30.20
516;DHT22;244;48.508;9.052;2023-03-14T07:40:10;13.10;29.80
516;DHT22;244;48.508;9.052;2023-03-14T07:42:40;13.20;29.80
516;DHT22;244;48.508;9.052;2023-03-14T07:45:08;13.20;29.60
516;DHT22;244;48.508;9.052;2023-03-14T07:47:36;13.30;29.40
516;DHT22;244;48.508;9.052;2023-03-14T07:50:04;13.30;29.10
516;DHT22;244;48.508;9.052;2023-03-14T07:52:31;13.20;28.90
516;DHT22;244;48.508;9.052;2023-03-14T07:54:58;13.30;28.90
516;DHT22;244;48.508;9.052;2023-03-14T07:57:25;13.30;28.70
516;DHT22;244;48.508;9.052;2023-03-14T07:59:52;13.40;28.70
516;DHT22;244;48.508;9.052;2023-03-14T08:02:19;13.60;28.50
516;DHT22;244;48.508;9.052;2023-03-14T08:04:49;13.80;28.50
516;DHT22;244;48.508;9.052;2023-03-14T08:07:16;14.00;28.40
516;DHT22;244;48.508;9.052;2023-03-14T08:09:43;14.10;28.00
516;DHT22;244;48.508;9.052;2023-03-14T08:12:10;14.30;27.80
516;DHT22;244;48.508;9.052;2023-03-14T08:14:37;14.30;27.10
516;DHT22;244;48.508;9.052;2023-03-14T08:17:04;14.40;27.60
516;DHT22;244;48.508;9.052;2023-03-14T08:19:33;14.40;26.90
516;DHT22;244;48.508;9.052;2023-03-14T08:22:02;14.30;27.10
516;DHT22;244;48.508;9.052;2023-03-14T08:24:29;14.30;26.40
516;DHT22;244;48.508;9.052;2023-03-14T08:26:56;14.30;26.40
516;DHT22;244;48.508;9.052;2023-03-14T08:29:23;14.30;26.40
516;DHT22;244;48.508;9.052;2023-03-14T08:31:50;14.20;26.30
516;DHT22;244;48.508;9.052;2023-03-14T08:34:17;14.20;26.30
516;DHT22;244;48.508;9.052;2023-03-14T08:36:45;14.20;26.30
516;DHT22;244;48.508;9.052;2023-03-14T08:39:13;14.30;26.40
516;DHT22;244;48.508;9.052;2023-03-14T08:41:40;14.30;26.30
516;DHT22;244;48.508;9.052;2023-03-14T08:44:08;14.50;26.30
516;DHT22;244;48.508;9.052;2023-03-14T08:46:35;14.70;26.00
516;DHT22;244;48.508;9.052;2023-03-14T08:49:03;14.90;25.80
516;DHT22;244;48.508;9.052;2023-03-14T08:51:30;14.90;25.40
516;DHT22;244;48.508;9.052;2023-03-14T08:53:56;15.00;25.70
516;DHT22;244;48.508;9.052;2023-03-14T08:56:25;15.00;25.30
516;DHT22;244;48.508;9.052;2023-03-14T08:58:52;15.10;25.00
516;DHT22;244;48.508;9.052;2023-03-14T09:01:19;15.10;24.90
516;DHT22;244;48.508;9.052;2023-03-14T09:03:49;15.10;24.30
516;DHT22;244;48.508;9.052;2023-03-14T09:06:16;15.00;24.00
516;DHT22;244;48.508;9.052;2023-03-14T09:08:43;14.90;23.70
516;DHT22;244;48.508;9.052;2023-03-14T09:11:11;14.90;24.10
516;DHT22;244;48.508;9.052;2023-03-14T09:13:40;14.70;24.00
516;DHT22;244;48.508;9.052;2023-03-14T09:16:08;14.60;24.50
516;DHT22;244;48.508;9.052;2023-03-14T09:18:35;14.40;24.30
516;DHT22;244;48.508;9.052;2023-03-14T09:21:02;14.30;24.20
516;DHT22;244;48.508;9.052;2023-03-14T09:23:30;14.10;24.10
516;DHT22;244;48.508;9.052;2023-03-14T09:25:57;14.00;24.20
516;DHT22;244;48.508;9.052;2023-03-14T09:28:25;13.90;24.50
516;DHT22;244;48.508;9.052;2023-03-14T09:30:53;13.80;24.70
516;DHT22;244;48.508;9.052;2023-03-14T09:33:21;13.70;24.90
516;DHT22;244;48.508;9.052;2023-03-14T09:35:48;13.70;24.90
516;DHT22;244;48.508;9.052;2023-03-14T09:38:15;13.70;25.00
516;DHT22;244;48.508;9.052;2023-03-14T09:40:43;13.70;25.00
516;DHT22;244;48.508;9.052;2023-03-14T09:43:11;13.70;24.90
516;DHT22;244;48.508;9.052;2023-03-14T09:45:41;13.70;25.00
516;DHT22;244;48.508;9.052;2023-03-14T09:48:15;13.70;24.80
516;DHT22;244;48.508;9.052;2023-03-14T09:50:46;13.70;24.50
516;DHT22;244;48.508;9.052;2023-03-14T09:53:17;13.80;24.60
516;DHT22;244;48.508;9.052;2023-03-14T09:55:48;13.90;24.40
516;DHT22;244;48.508;9.052;2023-03-14T09:58:19;14.00;24.60
516;DHT22;244;48.508;9.052;2023-03-14T10:00:46;14.10;24.60
516;DHT22;244;48.508;9.052;2023-03-14T10:03:31;14.20;24.70
516;DHT22;244;48.508;9.052;2023-03-14T10:05:58;14.30;24.70
516;DHT22;244;48.508;9.052;2023-03-14T10:08:26;14.40;24.20
516;DHT22;244;48.508;9.052;2023-03-14T10:10:53;14.50;24.40
516;DHT22;244;48.508;9.052;2023-03-14T10:13:22;14.60;24.30
516;DHT22;244;48.508;9.052;2023-03-14T10:15:52;14.70;24.00
516;DHT22;244;48.508;9.052;2023-03-14T10:18:19;14.80;24.10
516;DHT22;244;48.508;9.052;2023-03-14T10:20:49;14.90;24.50
516;DHT22;244;48.508;9.052;2023-03-14T10:23:23;15.00;23.90
516;DHT22;244;48.508;9.052;2023-03-14T10:26:07;15.00;24.20
516;DHT22;244;48.508;9.052;2023-03-14T10:28:38;14.90;24.20
516;DHT22;244;48.508;9.052;2023-03-14T10:31:06;14.90;24.10
516;DHT22;244;48.508;9.052;2023-03-14T10:33:35;14.90;24.00
516;DHT22;244;48.508;9.052;2023-03-14T10:36:06;15.00;24.30
516;DHT22;244;48.508;9.052;2023-03-14T10:38:41;14.90;24.30
516;DHT22;244;48.508;9.052;2023-03-14T10:41:16;15.00;24.40
516;DHT22;244;48.508;9.052;2023-03-14T10:43:43;15.10;25.10
516;DHT22;244;48.508;9.052;2023-03-14T10:46:14;15.10;24.60
516;DHT22;244;48.508;9.052;2023-03-14T10:48:43;15.10;23.70
516;DHT22;244;48.508;9.052;2023-03-14T10:51:18;15.00;24.00
516;DHT22;244;48.508;9.052;2023-03-14T10:53:47;15.00;23.80
516;DHT22;244;48.508;9.052;2023-03-14T10:56:17;14.90;23.30
516;DHT22;244;48.508;9.052;2023-03-14T10:58:46;14.90;23.00
516;DHT22;244;48.508;9.052;2023-03-14T11:01:30;14.70;22.90
516;DHT22;244;48.508;9.052;2023-03-14T11:04:02;14.60;23.00
516;DHT22;244;48.508;9.052;2023-03-14T11:06:38;14.40;23.10
516;DHT22;244;48.508;9.052;2023-03-14T11:09:13;14.30;23.10
516;DHT22;244;48.508;9.052;2023-03-14T11:11:45;14.20;23.00
516;DHT22;244;48.508;9.052;2023-03-14T11:14:20;14.00;23.30
516;DHT22;244;48.508;9.052;2023-03-14T11:16:54;13.70;24.20
516;DHT22;244;48.508;9.052;2023-03-14T11:19:51;13.50;24.70
516;DHT22;244;48.508;9.052;2023-03-14T11:22:28;13.50;25.80
516;DHT22;244;48.508;9.052;2023-03-14T11:25:06;13.60;25.00
516;DHT22;244;48.508;9.052;2023-03-14T11:27:42;13.70;24.60
516;DHT22;244;48.508;9.052;2023-03-14T11:30:18;13.60;24.20
516;DHT22;244;48.508;9.052;2023-03-14T11:32:50;13.40;24.30
516;DHT22;244;48.508;9.052;2023-03-14T11:35:26;13.20;24.20
516;DHT22;244;48.508;9.052;2023-03-14T11:38:00;13.00;24.60
516;DHT22;244;48.508;9.052;2023-03-14T11:40:27;12.90;25.70
516;DHT22;244;48.508;9.052;2023-03-14T11:43:02;12.90;24.40
516;DHT22;244;48.508;9.052;2023-03-14T11:45:34;13.00;24.10
516;DHT22;244;48.508;9.052;2023-03-14T11:48:14;13.10;23.80
516;DHT22;244;48.508;9.052;2023-03-14T11:50:43;13.30;23.60
516;DHT22;244;48.508;9.052;2023-03-14T11:53:16;13.40;23.00
516;DHT22;244;48.508;9.052;2023-03-14T11:55:45;13.40;23.50
516;DHT22;244;48.508;9.052;2023-03-14T11:58:15;13.50;22.80
516;DHT22;244;48.508;9.052;2023-03-14T12:00:45;13.50;23.00
516;DHT22;244;48.508;9.052;2023-03-14T12:03:19;13.30;23.00
516;DHT22;244;48.508;9.052;2023-03-14T12:05:59;13.20;23.40
516;DHT22;244;48.508;9.052;2023-03-14T12:08:44;13.00;23.70
516;DHT22;244;48.508;9.052;2023-03-14T12:11:19;12.90;23.90
516;DHT22;244;48.508;9.052;2023-03-14T12:13:49;12.60;23.70
516;DHT22;244;48.508;9.052;2023-03-14T12:16:38;12.30;23.50
516;DHT22;244;48.508;9.052;2023-03-14T12:19:36;11.90;23.50
516;DHT22;244;48.508;9.052;2023-03-14T12:22:28;11.60;23.90
516;DHT22;244;48.508;9.052;2023-03-14T12:25:00;11.20;24.10
516;DHT22;244;48.508;9.052;2023-03-14T12:30:30;10.80;24.40
516;DHT22;244;48.508;9.052;2023-03-14T12:33:31;10.70;24.50
516;DHT22;244;48.508;9.052;2023-03-14T12:36:01;10.70;25.40
516;DHT22;244;48.508;9.052;2023-03-14T12:38:37;10.80;25.30
516;DHT22;244;48.508;9.052;2023-03-14T12:41:15;10.90;25.10
516;DHT22;244;48.508;9.052;2023-03-14T12:43:43;10.90;24.60
516;DHT22;244;48.508;9.052;2023-03-14T12:46:22;10.90;25.10
516;DHT22;244;48.508;9.052;2023-03-14T12:48:50;10.80;25.20
516;DHT22;244;48.508;9.052;2023-03-14T12:51:26;10.80;25.20
516;DHT22;244;48.508;9.052;2023-03-14T12:57:13;10.70;24.70
516;DHT22;244;48.508;9.052;2023-03-14T12:59:46;10.60;24.00
516;DHT22;244;48.508;9.052;2023-03-14T13:02:25;10.70;23.30
516;DHT22;244;48.508;9.052;2023-03-14T13:05:01;10.80;22.60
516;DHT22;244;48.508;9.052;2023-03-14T13:07:35;10.80;22.90
516;DHT22;244;48.508;9.052;2023-03-14T13:10:05;10.90;21.30
516;DHT22;244;48.508;9.052;2023-03-14T13:12:48;11.00;21.30
516;DHT22;244;48.508;9.052;2023-03-14T13:15:23;11.10;20.90
516;DHT22;244;48.508;9.052;2023-03-14T13:17:52;11.30;20.10
516;DHT22;244;48.508;9.052;2023-03-14T13:20:24;11.50;17.90
516;DHT22;244;48.508;9.052;2023-03-14T13:22:53;11.60;16.00
516;DHT22;244;48.508;9.052;2023-03-14T13:25:21;11.70;14.60
516;DHT22;244;48.508;9.052;2023-03-14T13:27:52;11.90;14.80
516;DHT22;244;48.508;9.052;2023-03-14T13:30:22;12.20;15.60
516;DHT22;244;48.508;9.052;2023-03-14T13:32:50;12.40;15.50
516;DHT22;244;48.508;9.052;2023-03-14T13:35:20;12.50;14.60
516;DHT22;244;48.508;9.052;2023-03-14T13:37:51;12.60;14.00
516;DHT22;244;48.508;9.052;2023-03-14T13:40:20;12.50;13.20
516;DHT22;244;48.508;9.052;2023-03-14T13:42:49;12.50;13.30
516;DHT22;244;48.508;9.052;2023-03-14T13:45:16;12.50;12.10
516;DHT22;244;48.508;9.052;2023-03-14T13:47:43;12.60;12.20
516;DHT22;244;48.508;9.052;2023-03-14T13:50:15;12.50;11.70
516;DHT22;244;48.508;9.052;2023-03-14T13:52:43;12.30;10.40
516;DHT22;244;48.508;9.052;2023-03-14T13:55:15;12.20;10.30
516;DHT22;244;48.508;9.052;2023-03-14T13:57:47;12.10;10.30
516;DHT22;244;48.508;9.052;2023-03-14T14:00:22;12.10;11.00
516;DHT22;244;48.508;9.052;2023-03-14T14:02:53;12.00;11.70
516;DHT22;244;48.508;9.052;2023-03-14T14:05:20;12.00;11.10
516;DHT22;244;48.508;9.052;2023-03-14T14:07:49;12.10;10.20
516;DHT22;244;48.508;9.052;2023-03-14T14:10:16;12.10;10.10
516;DHT22;244;48.508;9.052;2023-03-14T14:12:46;12.10;9.60
516;DHT22;244;48.508;9.052;2023-03-14T14:15:20;12.20;8.60
516;DHT22;244;48.508;9.052;2023-03-14T14:17:50;12.20;8.10
516;DHT22;244;48.508;9.052;2023-03-14T14:20:22;12.20;8.20
516;DHT22;244;48.508;9.052;2023-03-14T14:22:50;12.10;8.10
516;DHT22;244;48.508;9.052;2023-03-14T14:25:18;12.10;9.20
516;DHT22;244;48.508;9.052;2023-03-14T14:27:48;12.10;8.40
516;DHT22;244;48.508;9.052;2023-03-14T14:30:28;12.00;7.30
516;DHT22;244;48.508;9.052;2023-03-14T14:33:11;12.00;10.10
516;DHT22;244;48.508;9.052;2023-03-14T14:35:38;12.00;10.20
516;DHT22;244;48.508;9.052;2023-03-14T14:38:11;12.00;7.80
516;DHT22;244;48.508;9.052;2023-03-14T14:40:44;11.90;8.20
516;DHT22;244;48.508;9.052;2023-03-14T14:43:16;11.90;9.90
516;DHT22;244;48.508;9.052;2023-03-14T14:45:48;11.80;9.80
516;DHT22;244;48.508;9.052;2023-03-14T14:48:19;11.80;10.70
516;DHT22;244;48.508;9.052;2023-03-14T14:50:59;11.90;11.40
516;DHT22;244;48.508;9.052;2023-03-14T14:53:29;12.00;10.30
516;DHT22;244;48.508;9.052;2023-03-14T14:55:57;12.10;9.20
516;DHT22;244;48.508;9.052;2023-03-14T14:58:26;12.10;8.70
516;DHT22;244;48.508;9.052;2023-03-14T15:00:57;12.20;9.90
516;DHT22;244;48.508;9.052;2023-03-14T15:03:27;12.20;9.30
516;DHT22;244;48.508;9.052;2023-03-14T15:05:55;12.30;7.50
516;DHT22;244;48.508;9.052;2023-03-14T15:08:23;12.40;8.40
516;DHT22;244;48.508;9.052;2023-03-14T15:10:51;12.50;9.40
516;DHT22;244;48.508;9.052;2023-03-14T15:13:18;12.60;5.40
516;DHT22;244;48.508;9.052;2023-03-14T15:15:45;12.60;4.60
516;DHT22;244;48.508;9.052;2023-03-14T15:18:16;12.50;7.10
516;DHT22;244;48.508;9.052;2023-03-14T15:20:44;12.40;8.20
516;DHT22;244;48.508;9.052;2023-03-14T15:23:12;12.30;7.90
516;DHT22;244;48.508;9.052;2023-03-14T15:25:40;12.30;9.40
516;DHT22;244;48.508;9.052;2023-03-14T15:28:16;12.30;9.60
516;DHT22;244;48.508;9.052;2023-03-14T15:30:43;12.30;9.50
516;DHT22;244;48.508;9.052;2023-03-14T15:33:10;12.50;9.70
516;DHT22;244;48.508;9.052;2023-03-14T15:35:38;12.40;9.30
516;DHT22;244;48.508;9.052;2023-03-14T15:38:10;12.40;5.60
516;DHT22;244;48.508;9.052;2023-03-14T15:40:37;12.50;9.10
516;DHT22;244;48.508;9.052;2023-03-14T15:43:04;12.70;11.00
516;DHT22;244;48.508;9.052;2023-03-14T15:45:31;13.10;12.50
516;DHT22;244;48.508;9.052;2023-03-14T15:47:58;13.40;14.00
516;DHT22;244;48.508;9.052;2023-03-14T15:50:25;13.80;14.50
516;DHT22;244;48.508;9.052;2023-03-14T15:52:54;14.00;14.40
516;DHT22;244;48.508;9.052;2023-03-14T15:55:21;14.10;13.60
516;DHT22;244;48.508;9.052;2023-03-14T15:57:48;14.00;12.90
516;DHT22;244;48.508;9.052;2023-03-14T16:00:18;13.80;12.60
516;DHT22;244;48.508;9.052;2023-03-14T16:02:47;13.50;12.80
516;DHT22;244;48.508;9.052;2023-03-14T16:05:14;13.30;12.70
516;DHT22;244;48.508;9.052;2023-03-14T16:07:41;13.00;12.30
516;DHT22;244;48.508;9.052;2023-03-14T16:10:12;12.80;12.70
516;DHT22;244;48.508;9.052;2023-03-14T16:12:39;12.70;14.00
516;DHT22;244;48.508;9.052;2023-03-14T16:15:08;12.80;14.80
516;DHT22;244;48.508;9.052;2023-03-14T16:17:35;12.90;14.90
516;DHT22;244;48.508;9.052;2023-03-14T16:20:03;13.10;15.10
516;DHT22;244;48.508;9.052;2023-03-14T16:22:30;13.00;14.80
516;DHT22;244;48.508;9.052;2023-03-14T16:25:00;12.90;14.80
516;DHT22;244;48.508;9.052;2023-03-14T16:27:29;12.80;14.60
516;DHT22;244;48.508;9.052;2023-03-14T16:29:56;12.50;14.80
516;DHT22;244;48.508;9.052;2023-03-14T16:32:25;12.30;13.90
516;DHT22;244;48.508;9.052;2023-03-14T16:34:52;12.20;14.00
516;DHT22;244;48.508;9.052;2023-03-14T16:37:19;12.00;14.20
516;DHT22;244;48.508;9.052;2023-03-14T16:39:47;11.80;14.10
516;DHT22;244;48.508;9.052;2023-03-14T16:42:14;11.60;14.70
516;DHT22;244;48.508;9.052;2023-03-14T16:44:43;11.50;14.60
516;DHT22;244;48.508;9.052;2023-03-14T16:47:10;11.40;15.20
516;DHT22;244;48.508;9.052;2023-03-14T16:49:37;11.20;15.00
516;DHT22;244;48.508;9.052;2023-03-14T16:52:05;11.10;14.20
516;DHT22;244;48.508;9.052;2023-03-14T16:54:33;11.00;13.70
516;DHT22;244;48.508;9.052;2023-03-14T16:57:00;10.90;13.40
516;DHT22;244;48.508;9.052;2023-03-14T16:59:27;10.80;12.60
516;DHT22;244;48.508;9.052;2023-03-14T17:01:55;10.70;11.70
516;DHT22;244;48.508;9.052;2023-03-14T17:04:23;10.60;12.20